Peckham, United Kingdom
Current Conditions -  °F | °C
As of 5:50 PM on Saturday 25 Oct 2014 (Local Time) from EGLC Reporting Station
Scattered Clouds Scattered Clouds  
Wind Chill: 59°   Ceiling: Unl
Heat Index: 59°   Visibility: 6mi
Dew Point: 45°   Wind: 9mph
Humidity: 59%   Direction: 230°SW
Pressure: 30.09"   Gusts: NA
Location:  51.48°N, 0.07°W
Report Text: EGLC 251650Z AUTO 23008KT 9999 SCT040/// 15/07 Q1019
Loading
Personal Weather Stations






























Interactive Weather Map
Tropical Storm Tracking
New forecast layout! Learn more

10-Day Weather Forecast

Advertisements
Track Severe Weather on mobile